Time;durP1;ratioP1;P1;durP2;ratioP2;P2;SDS_P1;SDS_P2;PMS_P1;PMS_P2;Temp;Humidity;BMP_temperature;BMP_pressure;BME280_temperature;BME280_humidity;BME280_pressure;Samples;Min_cycle;Max_cycle;Signal;HPM_P1;HPM_P2
2022/04/19 00:01:20;;;;;;;3.17;1.50;;;;;;;6.00;100.00;98142.16;10465961;28;20083;-59
2022/04/19 00:06:24;;;;;;;1.75;1.55;;;;;;;5.88;100.00;98137.88;10463232;28;20045;-59
2022/04/19 00:11:27;;;;;;;2.55;1.40;;;;;;;5.79;100.00;98128.84;10465255;28;20072;-59
2022/04/19 00:16:30;;;;;;;2.25;1.50;;;;;;;5.72;100.00;98123.19;10463988;28;20159;-59
2022/04/19 00:21:35;;;;;;;2.60;1.58;;;;;;;5.67;100.00;98134.31;10464948;28;20049;-58
2022/04/19 00:26:38;;;;;;;2.10;1.63;;;;;;;5.60;100.00;98130.50;10463318;28;20186;-57
2022/04/19 00:31:41;;;;;;;1.75;1.60;;;;;;;5.57;100.00;98128.09;10448549;28;20139;-59
2022/04/19 00:36:46;;;;;;;1.65;1.25;;;;;;;5.51;100.00;98123.31;10462728;28;20045;-58
2022/04/19 00:41:49;;;;;;;2.88;1.45;;;;;;;5.44;100.00;98117.66;10461388;28;20059;-58
2022/04/19 00:46:52;;;;;;;1.40;1.30;;;;;;;5.32;100.00;98124.09;10442121;22;20132;-61
2022/04/19 00:51:57;;;;;;;2.25;1.55;;;;;;;5.27;100.00;98112.97;10406112;28;20053;-64
2022/04/19 00:57:03;;;;;;;1.40;1.30;;;;;;;5.12;100.00;98110.66;10386363;28;20046;-64
2022/04/19 01:02:06;;;;;;;1.60;1.50;;;;;;;4.94;100.00;98103.28;10367973;28;20049;-62
2022/04/19 01:07:11;;;;;;;1.50;1.40;;;;;;;4.82;100.00;98104.34;10366064;28;20513;-59
2022/04/19 01:17:39;;;;;;;2.03;1.70;;;;;;;4.70;100.00;98090.25;10389138;28;20042;-62
2022/04/19 01:22:49;;;;;;;1.73;1.40;;;;;;;4.65;100.00;98088.94;10386449;28;20556;-63
2022/04/19 01:27:54;;;;;;;3.53;1.67;;;;;;;4.55;100.00;98086.22;10379270;28;20418;-63
2022/04/19 01:32:58;;;;;;;1.60;1.50;;;;;;;4.48;100.00;98086.72;10386994;28;20045;-64
2022/04/19 01:38:04;;;;;;;2.08;1.75;;;;;;;4.41;100.00;98074.91;10385196;28;20517;-60
2022/04/19 01:43:12;;;;;;;2.78;1.80;;;;;;;4.31;100.00;98080.16;10385848;28;21339;-61
2022/04/19 01:48:23;;;;;;;1.83;1.55;;;;;;;4.21;100.00;98065.94;10374829;28;20580;-61
2022/04/19 01:53:29;;;;;;;1.98;1.50;;;;;;;4.11;100.00;98070.34;10386052;28;20096;-61
2022/04/19 01:58:32;;;;;;;1.85;1.70;;;;;;;4.05;100.00;98068.22;10366808;28;20577;-55
2022/04/19 02:03:37;;;;;;;2.00;1.80;;;;;;;3.97;100.00;98072.34;10366959;28;20050;-60
2022/04/19 02:08:43;;;;;;;2.28;1.98;;;;;;;3.89;100.00;98074.81;10171143;28;5002564;-61
2022/04/19 02:13:53;;;;;;;1.80;1.70;;;;;;;3.80;100.00;98072.91;10372078;28;20103;-58
2022/04/19 02:19:06;;;;;;;2.05;1.88;;;;;;;3.70;100.00;98071.00;10366081;28;20110;-62
2022/04/19 02:24:10;;;;;;;2.95;2.00;;;;;;;3.64;100.00;98060.03;10382334;28;20158;-61
2022/04/19 02:29:16;;;;;;;2.30;1.77;;;;;;;3.57;100.00;98057.00;10367831;28;20120;-57
2022/04/19 02:34:23;;;;;;;2.22;1.77;;;;;;;3.51;100.00;98061.03;10367252;28;20046;-61
2022/04/19 02:39:28;;;;;;;2.15;1.90;;;;;;;3.43;100.00;98054.63;10364874;28;20056;-61
2022/04/19 02:44:32;;;;;;;2.03;1.83;;;;;;;3.36;100.00;98057.78;10377329;28;20061;-58
2022/04/19 02:49:40;;;;;;;3.47;1.90;;;;;;;3.31;100.00;98052.00;10377427;28;20060;-57
2022/04/19 02:54:45;;;;;;;2.15;1.95;;;;;;;3.26;100.00;98051.50;10385733;28;20102;-61
2022/04/19 02:59:48;;;;;;;2.28;1.92;;;;;;;3.24;100.00;98054.31;10390530;28;20065;-61
2022/04/19 03:04:51;;;;;;;3.97;1.98;;;;;;;3.18;100.00;98043.31;10391295;28;20056;-60
2022/04/19 03:09:55;;;;;;;2.47;1.88;;;;;;;3.12;100.00;98052.63;10384912;28;20045;-62
2022/04/19 03:15:00;;;;;;;3.78;2.10;;;;;;;3.07;100.00;98053.00;10383490;28;20045;-59
2022/04/19 03:20:07;;;;;;;2.20;2.00;;;;;;;3.02;100.00;98047.19;10389972;28;20549;-59
2022/04/19 03:30:33;;;;;;;2.78;2.33;;;;;;;2.98;100.00;98037.78;10395811;28;20034;-63
2022/04/19 03:35:36;;;;;;;2.30;2.00;;;;;;;2.94;100.00;98038.97;10418988;28;20128;-62
2022/04/19 03:40:41;;;;;;;2.05;1.88;;;;;;;2.91;100.00;98052.53;10402672;28;20049;-62
2022/04/19 03:45:45;;;;;;;3.38;2.20;;;;;;;2.88;100.00;98036.81;10391292;28;20049;-62
2022/04/19 03:50:51;;;;;;;2.17;2.00;;;;;;;2.84;100.00;98046.00;10389132;28;20062;-61
2022/04/19 03:55:55;;;;;;;3.28;2.00;;;;;;;2.80;100.00;98039.22;10388588;28;20057;-60
2022/04/19 04:01:01;;;;;;;1.95;1.80;;;;;;;2.75;100.00;98039.59;10375937;28;20061;-56
2022/04/19 04:06:05;;;;;;;2.75;2.35;;;;;;;2.70;100.00;98039.97;10387172;28;20049;-59
2022/04/19 04:11:09;;;;;;;6.10;2.40;;;;;;;2.61;100.00;98046.00;10382601;28;20052;-58
2022/04/19 04:16:19;;;;;;;2.13;1.92;;;;;;;2.55;100.00;98044.66;10367260;28;20084;-61
2022/04/19 04:21:22;;;;;;;3.55;2.20;;;;;;;2.53;100.00;98048.44;10374338;28;20048;-61
2022/04/19 04:26:27;;;;;;;2.95;2.45;;;;;;;2.50;100.00;98046.84;10387741;28;20515;-62
2022/04/19 04:31:30;;;;;;;3.15;2.40;;;;;;;2.52;100.00;98049.38;10383228;28;20137;-58
2022/04/19 04:36:34;;;;;;;3.10;2.20;;;;;;;2.56;100.00;98053.47;10385248;28;20469;-57
2022/04/19 04:41:40;;;;;;;4.38;2.60;;;;;;;2.62;100.00;98053.84;10372543;28;20060;-58
2022/04/19 04:52:05;;;;;;;3.40;2.45;;;;;;;2.77;100.00;98059.78;10386763;28;20148;-60
2022/04/19 04:57:10;;;;;;;2.60;2.40;;;;;;;2.81;100.00;98056.88;10380021;28;20049;-57
2022/04/19 05:02:13;;;;;;;3.03;2.38;;;;;;;2.84;100.00;98051.31;10377075;28;20429;-58
2022/04/19 05:07:18;;;;;;;2.88;2.67;;;;;;;2.83;100.00;98055.78;10382849;28;20054;-60
2022/04/19 05:12:31;;;;;;;3.35;2.40;;;;;;;2.85;100.00;98056.50;10386157;28;20140;-61
2022/04/19 05:17:35;;;;;;;3.00;2.50;;;;;;;2.87;100.00;98057.25;10367312;28;20057;-60
2022/04/19 05:22:38;;;;;;;2.50;2.30;;;;;;;2.99;100.00;98063.41;10367282;28;20042;-58
2022/04/19 05:27:46;;;;;;;3.30;2.50;;;;;;;3.15;100.00;98060.38;10365459;28;20420;-58
2022/04/19 05:32:49;;;;;;;3.30;2.25;;;;;;;3.38;100.00;98066.50;10384147;28;20050;-59
2022/04/19 05:37:53;;;;;;;2.80;2.47;;;;;;;3.58;100.00;98064.03;10383637;28;20061;-60
2022/04/19 05:42:58;;;;;;;2.67;2.40;;;;;;;3.73;100.00;98061.91;10370095;28;20045;-61
2022/04/19 05:48:01;;;;;;;2.42;2.00;;;;;;;3.88;100.00;98073.13;10379301;28;20644;-60
2022/04/19 05:53:06;;;;;;;2.30;1.52;;;;;;;4.35;100.00;98071.91;10362355;28;20046;-60
2022/04/19 05:58:11;;;;;;;2.80;1.25;;;;;;;4.66;100.00;98056.78;10379159;28;20481;-63
2022/04/19 06:08:35;;;;;;;1.38;1.13;;;;;;;5.16;100.00;98056.00;10376224;28;20045;-61
2022/04/19 06:13:43;;;;;;;1.00;0.93;;;;;;;5.30;100.00;98044.09;10379364;28;20130;-57
2022/04/19 06:18:47;;;;;;;3.10;1.40;;;;;;;5.37;100.00;98047.91;10379552;28;20049;-59
2022/04/19 06:23:53;;;;;;;1.40;1.15;;;;;;;5.47;100.00;98044.41;10379453;28;20060;-60
2022/04/19 06:28:59;;;;;;;2.10;1.20;;;;;;;5.55;100.00;98053.44;10377033;28;20164;-61
2022/04/19 06:34:17;;;;;;;1.77;1.30;;;;;;;5.66;100.00;98048.94;10365551;28;20518;-58
2022/04/19 06:39:47;;;;;;;1.35;1.10;;;;;;;5.80;100.00;98045.00;10379811;28;20068;-59
2022/04/19 06:44:51;;;;;;;1.08;0.80;;;;;;;5.94;100.00;98051.78;10380277;28;20050;-58
2022/04/19 06:50:08;;;;;;;1.95;1.00;;;;;;;6.03;100.00;98048.28;10383909;28;20227;-60
2022/04/19 06:55:11;;;;;;;2.60;0.95;;;;;;;6.15;100.00;98048.94;10367547;28;20145;-58
2022/04/19 07:00:18;;;;;;;1.42;1.10;;;;;;;6.26;100.00;98042.63;10380961;28;20510;-61
2022/04/19 07:05:21;;;;;;;3.38;1.10;;;;;;;6.37;100.00;98039.78;10379671;28;20056;-59
2022/04/19 07:10:26;;;;;;;1.70;0.90;;;;;;;6.52;100.00;98048.19;10370161;28;20100;-59
2022/04/19 07:15:53;;;;;;;2.17;1.45;;;;;;;6.59;100.00;98056.47;10363377;28;20402;-57
2022/04/19 07:31:41;;;;;;;1.33;1.23;;;;;;;6.87;100.00;98053.88;10374367;28;20533;-60
2022/04/19 07:36:52;;;;;;;1.63;1.20;;;;;;;7.00;100.00;98049.00;10386279;28;20057;-60
2022/04/19 07:41:55;;;;;;;1.65;1.25;;;;;;;7.06;100.00;98045.75;10386117;28;20049;-58
2022/04/19 07:47:02;;;;;;;1.63;1.15;;;;;;;7.14;100.00;98045.00;10362758;28;20481;-59
2022/04/19 07:52:12;;;;;;;5.28;1.35;;;;;;;7.33;100.00;98053.91;10376238;28;20049;-58
2022/04/19 07:57:19;;;;;;;1.95;1.30;;;;;;;7.45;100.00;98036.63;10371241;28;20053;-62
2022/04/19 08:02:30;;;;;;;2.33;1.10;;;;;;;7.67;100.00;98047.91;10379069;28;20057;-58
2022/04/19 08:07:34;;;;;;;1.40;1.30;;;;;;;7.82;100.00;98049.09;10382154;28;20077;-57
2022/04/19 08:12:37;;;;;;;2.30;1.27;;;;;;;7.92;100.00;98059.75;10382779;28;20049;-60
2022/04/19 08:17:42;;;;;;;2.08;1.20;;;;;;;8.14;100.00;98058.41;10380272;28;20045;-60
2022/04/19 08:22:46;;;;;;;1.80;1.23;;;;;;;8.20;98.85;98061.50;10370284;28;20048;-60
2022/04/19 08:27:55;;;;;;;1.30;1.20;;;;;;;8.32;100.00;98050.34;10381750;28;20196;-61
2022/04/19 08:33:00;;;;;;;1.65;1.10;;;;;;;8.56;89.89;98059.59;10362359;28;20073;-60
2022/04/19 08:38:03;;;;;;;1.70;1.08;;;;;;;8.71;84.30;98049.13;10388468;28;20774;-58
2022/04/19 08:43:11;;;;;;;3.13;1.10;;;;;;;8.83;80.59;98052.41;10383296;28;20418;-59
2022/04/19 08:48:16;;;;;;;1.15;1.05;;;;;;;8.99;81.46;98067.75;10365949;28;20476;-61
2022/04/19 08:58:45;;;;;;;2.90;1.15;;;;;;;8.83;89.43;98073.88;10382379;28;20045;-60
2022/04/19 09:03:50;;;;;;;1.10;1.00;;;;;;;8.83;97.53;98079.25;10384695;28;20156;-60
2022/04/19 09:09:10;;;;;;;1.38;1.08;;;;;;;8.90;100.00;98077.59;10386326;28;20136;-60
2022/04/19 09:14:13;;;;;;;1.27;1.17;;;;;;;8.96;100.00;98089.56;10386617;28;20505;-62
2022/04/19 09:19:28;;;;;;;1.70;1.30;;;;;;;8.94;100.00;98076.28;10388882;28;21302;-62
2022/04/19 09:24:32;;;;;;;1.60;1.20;;;;;;;9.05;100.00;98077.88;10370569;28;20081;-56
2022/04/19 09:29:35;;;;;;;1.65;1.17;;;;;;;8.94;95.34;98070.91;10387881;28;20096;-60
2022/04/19 09:34:47;;;;;;;1.63;1.30;;;;;;;9.04;92.62;98075.34;10385574;28;20144;-64
2022/04/19 09:39:54;;;;;;;2.28;1.20;;;;;;;9.17;97.98;98086.50;10382386;28;20052;-58
2022/04/19 09:44:57;;;;;;;1.38;1.27;;;;;;;9.17;99.73;98086.50;10383024;28;20065;-62
2022/04/19 09:50:03;;;;;;;4.10;1.23;;;;;;;9.05;93.21;98085.09;10388269;28;20055;-60
2022/04/19 09:55:08;;;;;;;4.45;1.50;;;;;;;9.21;100.00;98077.09;10383130;28;20049;-58
2022/04/19 10:00:13;;;;;;;3.88;1.27;;;;;;;9.29;100.00;98078.97;10380712;28;21492;-62
2022/04/19 10:10:41;;;;;;;2.70;1.30;;;;;;;9.23;89.23;98077.75;10381608;28;20048;-62
2022/04/19 10:15:44;;;;;;;3.20;1.48;;;;;;;9.23;100.00;98080.44;10385330;28;20104;-60
2022/04/19 10:21:01;;;;;;;2.33;1.40;;;;;;;9.47;88.47;98086.94;10382095;28;20046;-60
2022/04/19 10:26:16;;;;;;;1.90;1.52;;;;;;;9.62;83.62;98089.88;10383956;28;20115;-59
2022/04/19 10:31:27;;;;;;;2.00;1.35;;;;;;;9.60;70.77;98101.78;10384412;28;20056;-57
2022/04/19 10:36:39;;;;;;;2.28;1.30;;;;;;;9.81;70.13;98088.75;10383692;28;20054;-63
2022/04/19 10:41:47;;;;;;;3.13;1.30;;;;;;;9.93;67.50;98099.19;10381455;28;20124;-59
2022/04/19 10:47:13;;;;;;;1.73;1.35;;;;;;;10.08;73.77;98100.22;10381628;28;20085;-59
2022/04/19 10:52:48;;;;;;;1.65;1.40;;;;;;;10.18;74.47;98098.19;10383100;28;20618;-61
2022/04/19 11:03:52;;;;;;;3.28;1.30;;;;;;;10.36;68.35;98086.44;10334169;28;20479;-62
2022/04/19 11:09:08;;;;;;;1.50;1.40;;;;;;;10.31;63.86;98088.78;10391585;28;20061;-60
2022/04/19 11:14:23;;;;;;;1.60;1.38;;;;;;;10.54;63.67;98085.44;10389065;28;20785;-54
2022/04/19 11:19:26;;;;;;;2.53;1.40;;;;;;;10.35;62.73;98095.53;10392853;28;20391;-59
2022/04/19 11:25:03;;;;;;;3.17;1.70;;;;;;;10.44;63.26;98088.34;10392035;28;20178;-54
2022/04/19 11:30:13;;;;;;;3.20;1.48;;;;;;;10.66;59.36;98081.38;10390022;28;20053;-59
2022/04/19 11:35:17;;;;;;;2.08;1.50;;;;;;;10.83;59.06;98087.59;10388030;28;20048;-58
2022/04/19 11:51:08;;;;;;;3.50;1.77;;;;;;;10.97;57.26;98075.28;10391018;28;20038;-60
2022/04/19 11:56:12;;;;;;;1.98;1.60;;;;;;;11.18;55.27;98084.66;10380251;28;20061;-59
2022/04/19 12:01:15;;;;;;;1.70;1.60;;;;;;;11.45;58.38;98063.66;10376142;28;20156;-58
2022/04/19 12:06:20;;;;;;;3.83;1.83;;;;;;;11.30;56.96;98074.31;10375229;28;20553;-59
2022/04/19 12:11:29;;;;;;;4.50;1.67;;;;;;;11.20;53.84;98067.28;10376287;28;20076;-60
2022/04/19 12:16:34;;;;;;;2.15;1.40;;;;;;;11.45;54.04;98071.75;10373289;28;20041;-57
2022/04/19 12:21:39;;;;;;;3.92;1.45;;;;;;;11.71;50.86;98074.16;10374986;28;20050;-58
2022/04/19 12:26:44;;;;;;;1.77;1.50;;;;;;;12.09;53.42;98062.63;10367226;28;20455;-57
2022/04/19 12:31:58;;;;;;;1.60;1.50;;;;;;;12.28;51.17;98064.00;10387434;28;20055;-61
2022/04/19 12:37:08;;;;;;;2.28;1.60;;;;;;;12.35;49.12;98058.72;10387523;28;20041;-60
2022/04/19 12:42:13;;;;;;;1.90;1.45;;;;;;;12.41;50.61;98053.44;10375635;28;20065;-58
2022/04/19 12:47:16;;;;;;;1.55;1.27;;;;;;;12.77;49.97;98058.16;10352951;28;20053;-61
2022/04/19 12:52:19;;;;;;;1.88;1.20;;;;;;;12.88;49.64;98051.44;10369077;28;20056;-58
2022/04/19 12:57:24;;;;;;;3.35;1.50;;;;;;;13.06;47.93;98044.84;10371253;28;20573;-56
2022/04/19 13:02:28;;;;;;;4.80;1.35;;;;;;;12.68;47.79;98048.47;10374843;28;20135;-58
2022/04/19 13:12:56;;;;;;;1.33;1.23;;;;;;;12.74;47.91;98036.91;10380609;28;20057;-56
2022/04/19 13:17:59;;;;;;;1.52;1.27;;;;;;;12.91;47.59;98042.97;10388280;28;20644;-56
2022/04/19 13:23:02;;;;;;;2.33;1.25;;;;;;;12.81;47.65;98030.78;10384627;28;20055;-59
2022/04/19 13:28:07;;;;;;;1.73;1.08;;;;;;;13.18;46.53;98032.53;10382426;28;20133;-56
2022/04/19 13:33:12;;;;;;;1.88;1.20;;;;;;;13.76;46.86;98039.91;10367113;28;20111;-59
2022/04/19 13:38:25;;;;;;;1.42;1.15;;;;;;;13.85;45.67;98027.94;10383418;28;20051;-58
2022/04/19 13:43:29;;;;;;;2.13;1.00;;;;;;;13.63;44.92;98024.38;10383877;28;20057;-56
2022/04/19 13:48:32;;;;;;;1.92;1.20;;;;;;;13.29;45.96;98031.19;10383853;28;20073;-62
2022/04/19 13:53:36;;;;;;;2.38;1.00;;;;;;;13.16;47.69;98031.06;10389278;28;20112;-60
2022/04/19 13:58:43;;;;;;;1.73;0.93;;;;;;;13.12;47.37;98027.84;10381762;28;20052;-59
2022/04/19 14:03:47;;;;;;;1.73;1.05;;;;;;;12.95;46.82;98036.19;10367800;28;20143;-56
2022/04/19 14:08:51;;;;;;;1.67;1.00;;;;;;;13.01;48.51;98036.44;10382383;28;20124;-59
2022/04/19 14:13:57;;;;;;;1.20;1.10;;;;;;;13.21;45.83;98039.44;10382011;28;20044;-60
2022/04/19 14:19:01;;;;;;;2.58;1.00;;;;;;;13.95;46.06;98030.34;10382278;28;20517;-59
2022/04/19 14:24:05;;;;;;;2.35;0.90;;;;;;;13.77;45.38;98041.59;10385498;28;20094;-58
2022/04/19 14:34:30;;;;;;;1.63;0.90;;;;;;;13.40;46.55;98041.59;10383425;28;20045;-61
2022/04/19 14:39:33;;;;;;;4.22;1.00;;;;;;;13.21;44.88;98037.56;10393995;28;20080;-58
2022/04/19 14:44:38;;;;;;;2.60;1.08;;;;;;;13.20;46.19;98040.44;10392719;28;20660;-58
2022/04/19 14:49:41;;;;;;;2.13;0.80;;;;;;;14.03;46.03;98029.38;10394950;28;20045;-60
2022/04/19 14:54:45;;;;;;;1.70;0.75;;;;;;;13.86;44.24;98029.63;10384848;28;20139;-60
2022/04/19 14:59:50;;;;;;;1.45;0.70;;;;;;;13.85;44.72;98041.47;10389016;28;20045;-61
2022/04/19 15:04:54;;;;;;;1.40;0.82;;;;;;;14.11;44.29;98031.13;10379207;28;20054;-60
2022/04/19 15:09:57;;;;;;;2.17;0.82;;;;;;;14.82;43.60;98032.13;10393212;28;20088;-60
2022/04/19 15:15:22;;;;;;;1.13;0.80;;;;;;;14.71;43.31;98030.78;10393457;28;20426;-61
2022/04/19 15:20:26;;;;;;;2.30;0.75;;;;;;;14.82;43.27;98021.28;10395827;28;20140;-61
2022/04/19 15:25:33;;;;;;;1.67;0.80;;;;;;;14.28;43.78;98023.56;10391673;28;20046;-58
2022/04/19 15:30:38;;;;;;;0.90;0.60;;;;;;;13.73;42.61;98025.94;10394642;28;20042;-57
2022/04/19 15:35:42;;;;;;;2.28;0.70;;;;;;;13.58;43.96;98028.69;10392842;28;20057;-58
2022/04/19 15:40:45;;;;;;;1.10;0.68;;;;;;;13.51;45.37;98021.31;10396425;28;20429;-60
2022/04/19 15:45:50;;;;;;;0.80;0.70;;;;;;;13.92;44.88;98025.28;10387173;28;20476;-61
2022/04/19 15:50:53;;;;;;;2.13;0.50;;;;;;;14.39;44.16;98023.03;10393466;28;20049;-56
2022/04/19 15:55:56;;;;;;;3.33;0.70;;;;;;;14.76;43.80;98023.75;10391089;28;20200;-61
2022/04/19 16:01:02;;;;;;;3.08;0.70;;;;;;;15.43;44.14;98027.88;10391143;28;20057;-57
2022/04/19 16:06:05;;;;;;;2.20;0.60;;;;;;;15.50;43.29;98016.00;10390063;28;20041;-60
2022/04/19 16:11:08;;;;;;;2.08;0.60;;;;;;;14.69;42.65;98027.47;10392381;28;20150;-57
2022/04/19 16:26:55;;;;;;;1.40;0.50;;;;;;;13.78;44.02;98032.44;10388551;28;19968;-59
2022/04/19 16:31:59;;;;;;;1.52;0.70;;;;;;;13.65;43.69;98033.13;10387716;28;20116;-57
2022/04/19 16:37:03;;;;;;;1.13;0.65;;;;;;;13.77;44.16;98035.34;10385718;28;20045;-62
2022/04/19 16:42:06;;;;;;;2.20;0.60;;;;;;;14.02;42.48;98043.94;10390886;28;20073;-60
2022/04/19 16:47:11;;;;;;;1.27;0.50;;;;;;;14.03;40.09;98048.34;10384323;28;20055;-62
2022/04/19 16:52:15;;;;;;;0.70;0.50;;;;;;;14.22;41.00;98054.97;10388525;28;20857;-60
2022/04/19 16:57:18;;;;;;;2.92;0.50;;;;;;;14.37;43.15;98044.06;10391433;28;20528;-61
2022/04/19 17:02:22;;;;;;;1.35;0.50;;;;;;;14.30;44.47;98051.28;10387356;28;20048;-61
2022/04/19 17:07:25;;;;;;;3.08;0.68;;;;;;;14.23;44.98;98058.53;10389723;28;20127;-60
2022/04/19 17:12:28;;;;;;;1.08;0.52;;;;;;;13.94;44.29;98063.00;10382155;28;20042;-64
2022/04/19 17:17:33;;;;;;;1.65;0.50;;;;;;;13.54;44.77;98075.06;10388329;28;20147;-60
2022/04/19 17:22:36;;;;;;;4.68;0.82;;;;;;;13.14;45.79;98085.31;10390407;28;20053;-59
2022/04/19 17:27:39;;;;;;;1.30;0.52;;;;;;;12.92;47.40;98079.81;10363435;28;20609;-57
2022/04/19 17:32:44;;;;;;;1.00;0.60;;;;;;;12.55;47.88;98092.31;10387117;28;20105;-60
2022/04/19 17:37:47;;;;;;;2.10;0.57;;;;;;;12.10;49.38;98100.28;10384935;28;20048;-59
2022/04/19 17:42:50;;;;;;;1.60;0.50;;;;;;;11.68;50.36;98104.19;10384074;28;20130;-60
2022/04/19 17:47:54;;;;;;;2.40;0.60;;;;;;;11.34;51.54;98111.59;10384041;28;20064;-59
2022/04/19 17:58:38;;;;;;;1.05;0.77;;;;;;;10.76;54.32;98118.94;10383948;28;20255;-60
2022/04/19 18:03:43;;;;;;;1.65;0.70;;;;;;;10.57;55.27;98125.50;10381239;28;20057;-61
2022/04/19 18:08:46;;;;;;;1.50;0.70;;;;;;;10.34;57.11;98126.16;10382951;28;20042;-60
2022/04/19 18:13:49;;;;;;;5.68;0.82;;;;;;;10.14;58.68;98133.69;10380939;28;20053;-59
2022/04/19 18:18:54;;;;;;;0.90;0.70;;;;;;;9.90;61.21;98150.63;10383938;28;20046;-61
2022/04/19 18:29:18;;;;;;;2.00;0.70;;;;;;;9.56;62.02;98155.91;10385818;28;20124;-58
2022/04/19 18:34:22;;;;;;;2.78;0.80;;;;;;;9.40;62.63;98174.63;10383509;28;20148;-61
2022/04/19 18:39:27;;;;;;;0.80;0.60;;;;;;;9.22;63.60;98175.56;10385472;28;20163;-62
2022/04/19 18:44:30;;;;;;;1.25;0.70;;;;;;;9.09;64.84;98192.09;10384199;28;20627;-61
2022/04/19 18:49:34;;;;;;;2.35;0.88;;;;;;;8.98;66.38;98192.34;10383197;28;20155;-58
2022/04/19 18:54:37;;;;;;;1.90;0.90;;;;;;;8.91;67.38;98208.25;10365768;28;20184;-59
2022/04/19 18:59:40;;;;;;;1.30;0.88;;;;;;;8.84;69.08;98209.88;10385720;28;20512;-59
2022/04/19 19:04:45;;;;;;;1.40;0.93;;;;;;;8.73;71.52;98221.69;10380348;28;20088;-60
2022/04/19 19:09:48;;;;;;;1.15;0.70;;;;;;;8.64;72.29;98228.84;10381743;28;20041;-60
2022/04/19 19:14:52;;;;;;;1.98;0.93;;;;;;;8.51;73.51;98231.09;10383210;28;20120;-60
2022/04/19 19:19:57;;;;;;;2.83;1.00;;;;;;;8.42;72.75;98226.56;10383428;28;20132;-59
2022/04/19 19:25:01;;;;;;;1.52;0.80;;;;;;;8.30;73.46;98234.84;10388447;28;20176;-59
2022/04/19 19:30:05;;;;;;;1.08;0.80;;;;;;;8.25;74.09;98244.34;10392838;28;20119;-59
2022/04/19 19:35:10;;;;;;;0.80;0.70;;;;;;;8.08;74.98;98252.22;10391481;28;20104;-59
2022/04/19 19:40:13;;;;;;;1.23;0.90;;;;;;;7.93;75.15;98254.56;10391669;28;20045;-59
2022/04/19 19:45:16;;;;;;;1.63;0.70;;;;;;;7.87;73.83;98263.19;10393190;28;20064;-59
2022/04/19 19:50:21;;;;;;;2.90;0.80;;;;;;;7.78;73.29;98267.59;10394315;28;20053;-60
2022/04/19 19:55:25;;;;;;;1.50;0.80;;;;;;;7.65;73.05;98270.63;10391311;28;20561;-58
2022/04/19 20:00:29;;;;;;;2.00;0.70;;;;;;;7.54;72.61;98270.81;10397125;28;20124;-60
2022/04/19 20:05:33;;;;;;;0.95;0.85;;;;;;;7.47;72.41;98270.53;10425559;28;20037;-62
2022/04/19 20:10:38;;;;;;;0.85;0.75;;;;;;;7.38;73.36;98271.41;10463139;28;20048;-63
2022/04/19 20:15:46;;;;;;;1.83;0.80;;;;;;;7.30;73.84;98274.81;10459191;28;20033;-61
2022/04/19 20:20:51;;;;;;;1.88;0.90;;;;;;;7.22;74.89;98280.88;10457056;28;20033;-61
2022/04/19 20:25:53;;;;;;;1.55;0.82;;;;;;;7.14;76.63;98280.75;10441077;28;20696;-56
2022/04/19 20:30:57;;;;;;;3.85;0.80;;;;;;;7.04;77.92;98291.47;10387739;28;20370;-61
2022/04/19 20:36:01;;;;;;;0.82;0.80;;;;;;;6.96;79.08;98294.03;10383198;28;21424;-61
2022/04/19 20:41:04;;;;;;;2.90;0.80;;;;;;;6.91;80.00;98301.63;10387878;28;20128;-62
2022/04/19 20:46:07;;;;;;;2.88;0.90;;;;;;;6.88;80.70;98296.56;10387448;28;20050;-60
2022/04/19 20:51:12;;;;;;;0.82;0.75;;;;;;;6.87;80.00;98298.38;10388990;28;20049;-60
2022/04/19 20:56:15;;;;;;;3.10;0.80;;;;;;;6.81;81.83;98298.09;10386838;28;20184;-59
2022/04/19 21:01:19;;;;;;;1.33;0.90;;;;;;;6.76;84.13;98312.75;10385362;28;20123;-56
2022/04/19 21:06:24;;;;;;;1.70;0.95;;;;;;;6.66;88.33;98309.22;10385109;28;20053;-57
2022/04/19 21:11:27;;;;;;;1.42;0.98;;;;;;;6.52;88.92;98306.97;10388137;28;20042;-59
2022/04/19 21:16:30;;;;;;;2.72;1.00;;;;;;;6.39;89.95;98307.19;10365770;28;20394;-62
2022/04/19 21:21:35;;;;;;;1.60;0.90;;;;;;;6.36;90.33;98302.97;10386583;28;20137;-59
2022/04/19 21:26:39;;;;;;;1.27;0.90;;;;;;;6.32;91.24;98299.75;10384341;28;20536;-61
2022/04/19 21:31:42;;;;;;;1.85;1.02;;;;;;;6.23;93.11;98310.41;10385150;28;20049;-62
2022/04/19 21:36:47;;;;;;;0.80;0.80;;;;;;;6.15;94.21;98303.06;10383256;28;20123;-59
2022/04/19 21:41:50;;;;;;;0.95;0.95;;;;;;;6.05;96.96;98300.38;10384142;28;20152;-59
2022/04/19 21:46:53;;;;;;;1.63;1.00;;;;;;;5.99;97.85;98301.75;10383934;28;20223;-61
2022/04/19 21:52:00;;;;;;;1.40;1.00;;;;;;;5.95;98.71;98304.78;10384654;28;20440;-60
2022/04/19 21:57:03;;;;;;;1.60;1.20;;;;;;;5.91;99.88;98306.88;10386195;28;20056;-61
2022/04/19 22:02:08;;;;;;;1.80;1.10;;;;;;;5.86;99.32;98296.59;10383151;28;20136;-61
2022/04/19 22:07:12;;;;;;;5.55;1.30;;;;;;;5.81;100.00;98306.00;10383815;28;20127;-59
2022/04/19 22:12:15;;;;;;;4.68;1.00;;;;;;;5.79;99.71;98300.78;10343742;28;20057;-60
2022/04/19 22:17:18;;;;;;;3.47;1.10;;;;;;;5.72;100.00;98302.28;10382502;28;20574;-60
2022/04/19 22:22:23;;;;;;;1.83;0.90;;;;;;;5.67;100.00;98304.53;10383441;28;20168;-60
2022/04/19 22:27:26;;;;;;;2.00;1.00;;;;;;;5.66;100.00;98294.81;10018087;28;5002073;-61
2022/04/19 22:32:29;;;;;;;1.20;1.10;;;;;;;5.59;100.00;98312.34;10380832;28;20474;-60
2022/04/19 22:37:33;;;;;;;3.15;1.00;;;;;;;5.59;100.00;98309.66;10201043;28;5001595;-57
2022/04/19 22:42:37;;;;;;;1.40;1.08;;;;;;;5.52;100.00;98310.22;10383816;28;20041;-60
2022/04/19 22:47:40;;;;;;;2.80;1.02;;;;;;;5.45;100.00;98314.41;10382804;28;20068;-58
2022/04/19 22:52:45;;;;;;;1.75;1.05;;;;;;;5.38;100.00;98314.06;10385307;28;20057;-57
2022/04/19 22:57:48;;;;;;;1.95;1.20;;;;;;;5.35;100.00;98310.84;10386737;28;20075;-60
2022/04/19 23:02:51;;;;;;;1.60;1.08;;;;;;;5.33;100.00;98308.28;10391300;28;20056;-59
2022/04/19 23:07:57;;;;;;;1.75;1.20;;;;;;;5.31;100.00;98317.41;10387199;28;20120;-59
2022/04/19 23:13:00;;;;;;;1.75;1.00;;;;;;;5.21;100.00;98312.84;10396021;28;20049;-60
2022/04/19 23:18:06;;;;;;;4.43;1.30;;;;;;;5.18;100.00;98313.09;10390510;28;20180;-60
2022/04/19 23:23:10;;;;;;;2.10;1.05;;;;;;;5.16;100.00;98303.53;10390412;28;20244;-60
2022/04/19 23:28:13;;;;;;;1.88;1.20;;;;;;;5.12;100.00;98308.25;10390912;28;20387;-59
2022/04/19 23:33:16;;;;;;;4.65;1.13;;;;;;;5.09;100.00;98309.38;10390638;28;20049;-59
2022/04/19 23:38:21;;;;;;;2.30;1.10;;;;;;;5.03;100.00;98315.25;10386169;28;20525;-56
2022/04/19 23:43:25;;;;;;;2.83;1.17;;;;;;;5.00;100.00;98310.16;10390054;28;20912;-56
2022/04/19 23:48:28;;;;;;;2.03;1.15;;;;;;;4.97;100.00;98305.06;10387570;28;21378;-61
2022/04/19 23:53:33;;;;;;;1.52;1.30;;;;;;;4.93;100.00;98303.66;10390688;28;20128;-56
2022/04/19 23:58:36;;;;;;;3.28;1.23;;;;;;;4.91;100.00;98302.91;10387181;28;20124;-57
